createdAt,value
2024-01-30T00:02:20.106Z,101926.94
2024-01-30T00:06:22.233Z,101919.94
2024-01-30T00:10:23.823Z,101844.25
2024-01-30T00:14:25.437Z,101844.28
2024-01-30T00:18:26.899Z,101867.75
2024-01-30T00:22:31.440Z,101920.81
2024-01-30T00:26:32.911Z,101909.50
2024-01-30T00:30:34.354Z,101855.53
2024-01-30T00:34:36.012Z,101895.50
2024-01-30T00:38:38.585Z,101791.19
2024-01-30T00:42:40.057Z,101837.25
2024-01-30T00:46:41.541Z,101876.41
2024-01-30T00:50:43.025Z,101833.81
2024-01-30T00:54:45.067Z,101834.69
2024-01-30T00:58:46.934Z,101891.25
2024-01-30T01:02:48.496Z,101847.78
2024-01-30T01:06:50.326Z,101908.69
2024-01-30T01:10:51.862Z,101845.19
2024-01-30T01:14:53.486Z,101899.16
2024-01-30T01:18:55.032Z,101903.47
2024-01-30T01:22:56.525Z,101858.25
2024-01-30T01:26:59.797Z,101906.13
2024-01-30T01:31:06.279Z,101901.75
2024-01-30T01:35:08.163Z,101873.09
2024-01-30T01:39:09.864Z,101846.09
2024-01-30T01:43:11.401Z,101900.88
2024-01-30T01:47:12.917Z,101886.94
2024-01-30T01:51:15.380Z,101840.84
2024-01-30T01:55:18.695Z,101820.81
2024-01-30T01:59:21.457Z,101825.19
2024-01-30T02:03:23.274Z,101890.47
2024-01-30T02:07:25.473Z,101823.47
2024-01-30T02:11:27.457Z,101884.31
2024-01-30T02:15:30.194Z,101847.78
2024-01-30T02:19:31.785Z,101811.25
2024-01-30T02:23:35.448Z,101820.78
2024-01-30T02:27:37.281Z,101843.41
2024-01-30T02:31:38.704Z,101856.44
2024-01-30T02:35:40.394Z,101813.84
2024-01-30T02:39:41.874Z,101781.69
2024-01-30T02:43:43.344Z,101826.00
2024-01-30T02:47:45.037Z,101846.84
2024-01-30T02:51:46.564Z,101852.09
2024-01-30T02:55:48.256Z,101813.88
2024-01-30T02:59:49.810Z,101799.91
2024-01-30T03:03:51.516Z,101851.25
2024-01-30T03:07:53.161Z,101856.44
2024-01-30T03:11:54.673Z,101838.19
2024-01-30T03:15:56.125Z,101843.38
2024-01-30T03:19:57.864Z,101842.53
2024-01-30T03:23:59.409Z,101772.09
2024-01-30T03:28:00.963Z,101818.19
2024-01-30T03:32:02.497Z,101791.22
2024-01-30T03:36:05.854Z,101825.97
2024-01-30T03:40:07.965Z,101813.81
2024-01-30T03:44:09.514Z,101818.19
2024-01-30T03:48:11.042Z,101826.81
2024-01-30T03:52:12.566Z,101818.13
2024-01-30T03:56:15.018Z,101780.75
2024-01-30T04:00:16.856Z,101774.69
2024-01-30T04:04:21.776Z,101748.50
2024-01-30T04:08:23.746Z,101819.00
2024-01-30T04:12:25.505Z,101807.66
2024-01-30T04:16:27.162Z,101813.75
2024-01-30T04:20:28.822Z,101802.47
2024-01-30T04:24:30.306Z,101756.34
2024-01-30T04:28:31.956Z,101778.16
2024-01-30T04:32:33.828Z,101755.50
2024-01-30T04:36:35.286Z,101747.69
2024-01-30T04:40:36.817Z,101802.44
2024-01-30T04:44:38.381Z,101803.34
2024-01-30T04:48:40.066Z,101803.34
2024-01-30T04:52:41.673Z,101812.06
2024-01-30T04:56:43.124Z,101794.69
2024-01-30T05:00:44.888Z,101755.53
2024-01-30T05:04:46.667Z,101808.56
2024-01-30T05:08:48.179Z,101787.69
2024-01-30T05:12:49.749Z,101812.91
2024-01-30T05:16:51.221Z,101805.09
2024-01-30T05:20:52.724Z,101758.13
2024-01-30T05:24:54.273Z,101810.31
2024-01-30T05:28:55.835Z,101800.75
2024-01-30T05:32:57.450Z,101732.91
2024-01-30T05:36:58.996Z,101781.63
2024-01-30T05:41:00.496Z,101755.53
2024-01-30T05:45:01.962Z,101749.44
2024-01-30T05:49:03.564Z,101752.91
2024-01-30T05:53:05.142Z,101747.69
2024-01-30T05:57:06.754Z,101745.94
2024-01-30T06:01:09.816Z,101799.84
2024-01-30T06:05:11.501Z,101801.63
2024-01-30T06:09:14.140Z,101750.28
2024-01-30T06:13:15.785Z,101732.03
2024-01-30T06:17:17.641Z,101789.44
2024-01-30T06:21:19.489Z,101791.13
2024-01-30T06:25:21.107Z,101789.38
2024-01-30T06:29:23.058Z,101723.28
2024-01-30T06:33:24.642Z,101774.59
2024-01-30T06:37:26.195Z,101719.84
2024-01-30T06:41:27.834Z,101688.56
2024-01-30T06:45:29.284Z,101730.22
2024-01-30T06:49:30.906Z,101765.88
2024-01-30T06:53:32.474Z,101728.47
2024-01-30T06:57:33.983Z,101718.06
2024-01-30T07:01:35.543Z,101774.59
2024-01-30T07:05:37.165Z,101772.00
2024-01-30T07:09:38.615Z,101763.28
2024-01-30T07:13:40.074Z,101722.44
2024-01-30T07:17:42.463Z,101769.34
2024-01-30T07:21:44.010Z,101771.13
2024-01-30T07:25:48.409Z,101776.38
2024-01-30T07:29:51.402Z,101760.69
2024-01-30T07:33:52.902Z,101723.31
2024-01-30T07:37:54.413Z,101778.94
2024-01-30T07:41:55.861Z,101778.06
2024-01-30T07:45:57.548Z,101714.59
2024-01-30T07:49:59.126Z,101767.69
2024-01-30T07:54:00.725Z,101774.56
2024-01-30T07:58:02.836Z,101780.72
2024-01-30T08:02:04.761Z,101788.53
2024-01-30T08:06:07.790Z,101757.28
2024-01-30T08:10:09.962Z,101728.53
2024-01-30T08:14:11.783Z,101779.81
2024-01-30T08:18:13.587Z,101775.47
2024-01-30T08:22:15.147Z,101769.41
2024-01-30T08:26:16.791Z,101772.00
2024-01-30T08:30:18.377Z,101731.09
2024-01-30T08:34:20.356Z,101742.44
2024-01-30T08:38:21.824Z,101716.31
2024-01-30T08:42:24.063Z,101777.19
2024-01-30T08:46:25.904Z,101769.41
2024-01-30T08:50:27.874Z,101726.75
2024-01-30T08:54:29.484Z,101712.84
2024-01-30T08:58:31.668Z,101771.06
2024-01-30T09:02:34.378Z,101730.22
2024-01-30T09:06:35.898Z,101764.91
2024-01-30T09:10:38.416Z,101702.28
2024-01-30T09:14:41.723Z,101707.44
2024-01-30T09:18:43.436Z,101754.31
2024-01-30T09:22:44.972Z,101696.88
2024-01-30T09:26:46.507Z,101697.81
2024-01-30T09:30:48.090Z,101744.72
2024-01-30T09:34:49.783Z,101699.50
2024-01-30T09:38:51.557Z,101743.84
2024-01-30T09:42:53.227Z,101703.91
2024-01-30T09:46:54.834Z,101702.16
2024-01-30T09:50:58.508Z,101722.19
2024-01-30T09:55:02.258Z,101710.00
2024-01-30T09:59:03.828Z,101761.25
2024-01-30T10:03:05.943Z,101745.59
2024-01-30T10:07:10.336Z,101709.13
2024-01-30T10:11:12.275Z,101697.78
2024-01-30T10:15:15.285Z,101722.06
2024-01-30T10:19:16.844Z,101735.94
2024-01-30T10:23:20.161Z,101678.59
2024-01-30T10:27:27.858Z,101713.31
2024-01-30T10:31:29.488Z,101686.31
2024-01-30T10:35:31.143Z,101683.75
2024-01-30T10:39:35.185Z,101676.72
2024-01-30T10:43:39.302Z,101724.50
2024-01-30T10:47:49.586Z,101739.28
2024-01-30T10:51:52.958Z,101729.69
2024-01-30T10:55:56.360Z,101589.00
2024-01-30T10:59:59.532Z,101672.25
2024-01-30T11:04:01.188Z,101685.25
2024-01-30T11:08:15.175Z,101674.84
2024-01-30T11:12:16.789Z,101656.50
2024-01-30T11:16:18.294Z,101656.50
2024-01-30T11:20:26.510Z,101659.94
2024-01-30T11:24:28.794Z,101663.28
2024-01-30T11:28:35.800Z,101691.03
2024-01-30T11:32:38.124Z,101707.50
2024-01-30T11:36:44.147Z,101700.59
2024-01-30T11:40:46.990Z,101677.03
2024-01-30T11:44:50.142Z,101690.06
2024-01-30T11:48:53.196Z,101695.25
2024-01-30T11:52:55.622Z,101688.38
2024-01-30T11:56:57.058Z,101663.94
2024-01-30T12:00:59.291Z,101652.63
2024-01-30T12:05:05.863Z,101622.22
2024-01-30T12:09:11.076Z,101629.19
2024-01-30T12:13:13.726Z,101635.19
2024-01-30T12:17:25.889Z,101643.91
2024-01-30T12:21:27.608Z,101671.66
2024-01-30T12:25:29.411Z,101625.63
2024-01-30T12:29:36.274Z,101658.53
2024-01-30T12:33:40.003Z,101624.72
2024-01-30T12:37:43.750Z,101656.75
2024-01-30T12:41:45.392Z,101648.00
2024-01-30T12:45:48.155Z,101616.66
2024-01-30T12:49:49.876Z,101666.16
2024-01-30T12:53:51.497Z,101659.09
2024-01-30T12:57:53.022Z,101607.84
2024-01-30T13:01:55.010Z,101620.88
2024-01-30T13:05:56.656Z,101607.91
2024-01-30T13:10:03.960Z,101592.41
2024-01-30T13:14:05.568Z,101633.16
2024-01-30T13:18:07.568Z,101617.50
2024-01-30T13:22:09.169Z,101685.22
2024-01-30T13:26:10.673Z,101663.63
2024-01-30T13:30:12.562Z,101648.00
2024-01-30T13:34:15.063Z,101641.84
2024-01-30T13:38:16.950Z,101691.34
2024-01-30T13:42:18.524Z,101693.09
2024-01-30T13:46:20.184Z,101693.03
2024-01-30T13:50:21.666Z,101692.19
2024-01-30T13:54:23.821Z,101694.75
2024-01-30T13:58:25.359Z,101686.06
2024-01-30T14:02:27.125Z,101648.75
2024-01-30T14:06:28.931Z,101698.19
2024-01-30T14:10:30.719Z,101708.63
2024-01-30T14:14:32.248Z,101680.78
2024-01-30T14:18:33.729Z,101653.94
2024-01-30T14:22:35.407Z,101721.69
2024-01-30T14:26:37.809Z,101653.03
2024-01-30T14:30:39.369Z,101658.22
2024-01-30T14:34:41.083Z,101648.59
2024-01-30T14:38:43.657Z,101694.59
2024-01-30T14:42:45.717Z,101698.88
2024-01-30T14:46:47.370Z,101699.69
2024-01-30T14:50:48.955Z,101692.78
2024-01-30T14:54:50.599Z,101711.00
2024-01-30T14:58:53.337Z,101705.72
2024-01-30T15:02:55.008Z,101709.22
2024-01-30T15:06:56.908Z,101665.81
2024-01-30T15:11:00.006Z,101691.81
2024-01-30T15:15:02.005Z,101560.81
2024-01-30T15:19:05.926Z,101604.06
2024-01-30T15:23:07.772Z,101714.31
2024-01-30T15:27:09.317Z,101664.78
2024-01-30T15:31:10.930Z,101686.50
2024-01-30T15:35:12.595Z,101714.25
2024-01-30T15:39:16.307Z,101646.50
2024-01-30T15:43:17.889Z,101715.06
2024-01-30T15:47:19.501Z,101703.84
2024-01-30T15:51:20.956Z,101724.66
2024-01-30T15:55:22.532Z,101736.81
2024-01-30T15:59:24.142Z,101729.88
2024-01-30T16:03:27.822Z,101735.94
2024-01-30T16:07:32.352Z,101732.41
2024-01-30T16:11:33.952Z,101693.41
2024-01-30T16:15:35.740Z,101684.69
2024-01-30T16:19:37.323Z,101735.03
2024-01-30T16:23:38.982Z,101701.13
2024-01-30T16:27:40.795Z,101683.03
2024-01-30T16:31:42.341Z,101708.22
2024-01-30T16:35:46.748Z,101760.28
2024-01-30T16:39:49.513Z,101756.78
2024-01-30T16:43:51.017Z,101761.19
2024-01-30T16:47:52.548Z,101709.16
2024-01-30T16:51:54.120Z,101711.75
2024-01-30T16:55:55.679Z,101702.25
2024-01-30T16:59:57.401Z,101776.09
2024-01-30T17:03:58.894Z,101708.31
2024-01-30T17:08:00.960Z,101725.66
2024-01-30T17:12:04.116Z,101742.22
2024-01-30T17:16:05.900Z,101758.63
2024-01-30T17:20:08.786Z,101771.63
2024-01-30T17:24:12.176Z,101787.34
2024-01-30T17:28:14.505Z,101723.97
2024-01-30T17:32:16.046Z,101712.66
2024-01-30T17:36:17.624Z,101727.50
2024-01-30T17:40:19.926Z,101794.25
2024-01-30T17:44:22.011Z,101781.28
2024-01-30T17:48:23.736Z,101749.13
2024-01-30T17:52:25.473Z,101776.94
2024-01-30T17:56:27.106Z,101794.25
2024-01-30T18:00:28.728Z,101785.47
2024-01-30T18:04:30.703Z,101744.69
2024-01-30T18:08:35.517Z,101726.41
2024-01-30T18:12:37.086Z,101781.09
2024-01-30T18:16:38.673Z,101776.78
2024-01-30T18:20:41.228Z,101795.00
2024-01-30T18:24:43.567Z,101760.28
2024-01-30T18:28:45.418Z,101787.19
2024-01-30T18:32:47.338Z,101791.50
2024-01-30T18:36:48.881Z,101781.91
2024-01-30T18:40:50.552Z,101780.16
2024-01-30T18:44:52.035Z,101748.06
2024-01-30T18:48:53.746Z,101735.03
2024-01-30T18:52:55.361Z,101780.16
2024-01-30T18:56:56.832Z,101732.41
2024-01-30T19:00:58.447Z,101800.13
2024-01-30T19:05:01.290Z,101754.22
2024-01-30T19:09:03.525Z,101751.63
2024-01-30T19:13:06.579Z,101772.50
2024-01-30T19:17:08.163Z,101754.22
2024-01-30T19:21:09.726Z,101820.25
2024-01-30T19:25:11.332Z,101827.25
2024-01-30T19:29:12.812Z,101835.16
2024-01-30T19:33:14.276Z,101833.47
2024-01-30T19:37:15.755Z,101794.47
2024-01-30T19:41:17.333Z,101846.47
2024-01-30T19:45:18.933Z,101833.47
2024-01-30T19:49:21.549Z,101811.72
2024-01-30T19:53:24.293Z,101834.44
2024-01-30T19:57:25.820Z,101865.72
2024-01-30T20:01:27.584Z,101834.56
2024-01-30T20:05:29.308Z,101835.41
2024-01-30T20:09:30.883Z,101828.44
2024-01-30T20:13:33.058Z,101840.72
2024-01-30T20:17:34.756Z,101891.97
2024-01-30T20:21:37.112Z,101880.66
2024-01-30T20:25:38.672Z,101909.41
2024-01-30T20:29:40.159Z,101908.50
2024-01-30T20:33:41.959Z,101900.66
2024-01-30T20:37:43.579Z,101856.41
2024-01-30T20:41:45.981Z,101767.91
2024-01-30T20:45:47.609Z,101914.72
2024-01-30T20:49:49.240Z,101862.59
2024-01-30T20:53:50.699Z,101910.41
2024-01-30T20:57:52.384Z,101906.13
2024-01-30T21:01:53.996Z,101857.47
2024-01-30T21:05:56.445Z,101920.09
2024-01-30T21:09:58.056Z,101909.56
2024-01-30T21:13:59.672Z,101870.56
2024-01-30T21:18:01.696Z,101920.13
2024-01-30T21:22:03.287Z,101869.72
2024-01-30T21:26:05.034Z,101873.22
2024-01-30T21:30:07.764Z,101929.69
2024-01-30T21:34:09.315Z,101928.06
2024-01-30T21:38:10.808Z,101870.66
2024-01-30T21:42:12.424Z,101874.19
2024-01-30T21:46:24.060Z,101923.81
2024-01-30T21:50:25.657Z,101889.09
2024-01-30T21:54:27.137Z,101926.38
2024-01-30T21:58:28.711Z,101908.16
2024-01-30T22:02:30.199Z,101955.13
2024-01-30T22:06:31.811Z,101961.25
2024-01-30T22:10:33.460Z,101907.41
2024-01-30T22:14:36.375Z,101898.72
2024-01-30T22:18:38.031Z,101905.69
2024-01-30T22:22:39.512Z,101967.41
2024-01-30T22:26:42.691Z,101956.00
2024-01-30T22:30:44.330Z,101963.97
2024-01-30T22:34:45.930Z,101930.06
2024-01-30T22:38:47.411Z,101969.22
2024-01-30T22:42:48.905Z,101976.25
2024-01-30T22:46:50.490Z,101973.53
2024-01-30T22:50:52.090Z,101971.03
2024-01-30T22:54:53.654Z,101986.75
2024-01-30T22:58:55.217Z,101991.22
2024-01-30T23:02:57.783Z,101937.34
2024-01-30T23:06:59.551Z,101999.13
2024-01-30T23:11:01.012Z,101967.00
2024-01-30T23:15:03.874Z,102014.06
2024-01-30T23:19:05.574Z,101961.84
2024-01-30T23:23:09.268Z,101972.34
2024-01-30T23:27:10.706Z,102029.81
2024-01-30T23:31:12.272Z,102015.88
2024-01-30T23:35:13.982Z,101984.72
2024-01-30T23:39:15.631Z,102002.25
2024-01-30T23:43:17.166Z,101984.75
2024-01-30T23:47:18.769Z,102057.09
2024-01-30T23:51:20.266Z,102003.19
2024-01-30T23:55:21.763Z,102004.97
2024-01-30T23:59:23.460Z,102051.91
